Time;durP1;ratioP1;P1;durP2;ratioP2;P2;SDS_P1;SDS_P2;PMS_P1;PMS_P2;Temp;Humidity;BMP_temperature;BMP_pressure;BME280_temperature;BME280_humidity;BME280_pressure;Samples;Min_cycle;Max_cycle;Signal;HPM_P1;HPM_P2
2022/10/23 00:01:27;;;;;;;30.13;11.35;;;11.70;99.90;;;;;;5107813;28;20185;-77
2022/10/23 00:03:55;;;;;;;19.52;10.75;;;11.70;99.90;;;;;;5099464;28;20218;-76
2022/10/23 00:06:21;;;;;;;51.92;12.45;;;11.70;99.90;;;;;;5101987;28;20195;-76
2022/10/23 00:08:48;;;;;;;35.65;12.00;;;11.70;99.90;;;;;;5111268;28;20250;-80
2022/10/23 00:11:17;;;;;;;17.45;11.05;;;11.70;99.90;;;;;;5097408;28;20248;-76
2022/10/23 00:13:43;;;;;;;27.63;10.57;;;11.70;99.90;;;;;;5111137;28;20170;-76
2022/10/23 00:16:09;;;;;;;13.85;9.43;;;11.70;99.90;;;;;;5104981;28;20187;-76
2022/10/23 00:18:36;;;;;;;19.40;10.73;;;11.70;99.90;;;;;;5097720;28;20175;-76
2022/10/23 00:21:02;;;;;;;32.05;9.85;;;11.70;99.90;;;;;;5107196;28;20170;-76
2022/10/23 00:23:28;;;;;;;13.75;10.13;;;11.70;99.90;;;;;;5096233;28;20179;-76
2022/10/23 00:25:54;;;;;;;15.70;9.65;;;11.70;99.90;;;;;;5111942;28;20202;-76
2022/10/23 00:28:19;;;;;;;25.48;10.50;;;11.60;99.90;;;;;;5096269;28;20182;-76
2022/10/23 00:30:45;;;;;;;31.48;11.27;;;11.60;99.90;;;;;;5099175;28;20225;-77
2022/10/23 00:33:11;;;;;;;23.40;9.43;;;11.60;99.90;;;;;;5106874;28;20175;-77
2022/10/23 00:35:40;;;;;;;30.98;11.00;;;11.60;99.90;;;;;;5100222;28;20571;-76
2022/10/23 00:38:07;;;;;;;23.10;10.18;;;11.60;99.90;;;;;;5101017;28;20174;-76
2022/10/23 00:40:32;;;;;;;42.08;11.27;;;11.60;99.90;;;;;;5097170;28;20224;-77
2022/10/23 00:42:58;;;;;;;32.85;11.05;;;11.70;99.90;;;;;;5112566;28;20725;-74
2022/10/23 00:45:32;;;;;;;30.42;11.50;;;11.60;99.90;;;;;;5098910;28;20224;-75
2022/10/23 00:47:59;;;;;;;39.28;11.43;;;11.60;99.90;;;;;;5112887;28;20699;-76
2022/10/23 00:50:31;;;;;;;35.60;9.77;;;11.60;99.90;;;;;;5105978;28;20190;-75
2022/10/23 00:53:00;;;;;;;35.20;10.25;;;11.60;99.90;;;;;;5100969;28;20174;-77
2022/10/23 00:55:27;;;;;;;26.73;9.48;;;11.70;99.90;;;;;;5107190;28;20277;-76
2022/10/23 00:57:53;;;;;;;39.33;10.75;;;11.70;99.90;;;;;;5105793;28;20177;-75
2022/10/23 01:00:26;;;;;;;9.90;9.00;;;11.70;99.90;;;;;;5108344;28;20186;-77
2022/10/23 01:02:53;;;;;;;20.15;8.85;;;11.70;99.90;;;;;;5090887;28;20265;-76
2022/10/23 01:05:24;;;;;;;24.15;9.82;;;11.70;99.90;;;;;;5111063;28;20197;-77
2022/10/23 01:07:59;;;;;;;44.83;10.07;;;11.70;99.90;;;;;;5094342;28;20185;-77
2022/10/23 01:10:31;;;;;;;62.55;10.98;;;11.70;99.90;;;;;;5100472;28;20269;-77
2022/10/23 01:13:15;;;;;;;40.90;10.38;;;11.70;99.90;;;;;;5092732;28;20224;-77
2022/10/23 01:16:04;;;;;;;35.85;10.48;;;11.60;99.90;;;;;;5100608;28;20233;-77
2022/10/23 01:18:43;;;;;;;61.00;11.38;;;11.60;99.90;;;;;;5105120;28;20695;-74
2022/10/23 01:21:17;;;;;;;67.57;12.07;;;11.60;99.90;;;;;;5089266;28;20713;-77
2022/10/23 01:24:03;;;;;;;18.35;9.60;;;11.60;99.90;;;;;;5096597;28;20212;-77
2022/10/23 01:26:49;;;;;;;31.52;11.35;;;11.60;99.90;;;;;;5126365;27;20178;-76
2022/10/23 01:29:33;;;;;;;21.17;10.68;;;11.60;99.90;;;;;;5097628;28;20197;-76
2022/10/23 01:32:11;;;;;;;17.45;10.60;;;11.60;99.90;;;;;;5085695;28;20208;-76
2022/10/23 01:34:50;;;;;;;23.23;10.45;;;11.60;99.90;;;;;;5105503;28;20240;-77
2022/10/23 01:37:30;;;;;;;31.02;10.60;;;11.60;99.90;;;;;;5105433;28;20284;-77
2022/10/23 01:40:02;;;;;;;26.23;11.10;;;11.60;99.90;;;;;;5090318;28;20201;-82
2022/10/23 01:42:39;;;;;;;29.05;11.02;;;11.60;99.90;;;;;;5102666;28;20175;-77
2022/10/23 01:45:15;;;;;;;18.30;9.48;;;11.60;99.90;;;;;;5087620;28;20225;-80
2022/10/23 01:47:42;;;;;;;27.85;10.90;;;11.60;99.90;;;;;;5107402;28;20174;-75
2022/10/23 01:50:10;;;;;;;24.33;10.80;;;11.60;99.90;;;;;;5106797;28;20184;-77
2022/10/23 01:52:36;;;;;;;15.57;11.60;;;11.60;99.90;;;;;;5094759;28;20270;-76
2022/10/23 01:55:02;;;;;;;21.95;11.15;;;11.60;99.90;;;;;;5107580;28;20646;-75
2022/10/23 01:57:31;;;;;;;27.30;10.90;;;11.60;99.90;;;;;;5102907;28;20169;-76
2022/10/23 02:00:06;;;;;;;11.57;10.23;;;11.60;99.90;;;;;;5100509;28;20223;-76
2022/10/23 02:02:34;;;;;;;17.25;10.82;;;11.60;99.90;;;;;;5103378;28;20648;-76
2022/10/23 02:05:25;;;;;;;19.95;9.95;;;11.60;99.90;;;;;;5112935;28;20206;-76
2022/10/23 02:07:51;;;;;;;10.93;9.82;;;11.70;99.90;;;;;;5100659;27;20182;-76
2022/10/23 02:10:18;;;;;;;21.48;10.85;;;11.70;99.90;;;;;;5104346;28;20182;-76
2022/10/23 02:12:57;;;;;;;16.92;10.80;;;11.70;99.90;;;;;;5109770;28;20182;-76
2022/10/23 02:15:34;;;;;;;12.70;11.13;;;11.70;99.90;;;;;;5088812;28;20273;-76
2022/10/23 02:18:10;;;;;;;28.65;11.82;;;11.70;99.90;;;;;;5081393;28;20178;-74
2022/10/23 02:20:39;;;;;;;10.65;9.73;;;11.70;99.90;;;;;;5091290;28;20673;-76
2022/10/23 02:23:19;;;;;;;16.70;11.35;;;11.70;99.90;;;;;;5078093;28;20666;-81
2022/10/23 02:25:58;;;;;;;12.10;10.80;;;11.70;99.90;;;;;;5092805;28;20574;-76
2022/10/23 02:28:29;;;;;;;21.52;11.73;;;11.70;99.90;;;;;;5091983;28;20175;-76
2022/10/23 02:30:58;;;;;;;11.52;10.52;;;11.70;99.90;;;;;;5081177;28;20206;-76
2022/10/23 02:33:26;;;;;;;12.05;10.95;;;11.70;99.90;;;;;;5084694;28;20175;-73
2022/10/23 02:35:52;;;;;;;16.30;10.50;;;11.70;99.90;;;;;;5091571;28;20218;-76
2022/10/23 02:38:39;;;;;;;12.07;10.65;;;11.70;99.90;;;;;;5091121;28;20656;-76
2022/10/23 02:41:12;;;;;;;10.43;9.52;;;11.70;99.90;;;;;;5084838;28;20926;-76
2022/10/23 02:44:00;;;;;;;19.48;10.82;;;11.70;99.90;;;;;;5082992;28;20183;-77
2022/10/23 02:46:37;;;;;;;12.43;11.07;;;11.70;99.90;;;;;;5084900;28;20206;-75
2022/10/23 02:49:28;;;;;;;15.27;11.93;;;11.70;99.90;;;;;;5083473;28;20667;-76
2022/10/23 02:52:12;;;;;;;12.48;11.07;;;11.70;99.90;;;;;;5081752;28;20574;-75
2022/10/23 02:55:08;;;;;;;16.95;11.40;;;11.70;99.90;;;;;;5086172;28;20190;-74
2022/10/23 02:57:47;;;;;;;15.02;11.45;;;11.70;99.90;;;;;;5087518;28;20170;-75
2022/10/23 03:00:18;;;;;;;16.35;10.88;;;11.60;99.90;;;;;;5086015;28;20245;-75
2022/10/23 03:02:57;;;;;;;16.95;11.30;;;11.60;99.90;;;;;;5088398;28;20450;-74
2022/10/23 03:05:30;;;;;;;10.98;10.07;;;11.60;99.90;;;;;;5087136;28;20213;-74
2022/10/23 03:07:56;;;;;;;11.05;10.05;;;11.50;99.90;;;;;;5088817;28;20171;-75
2022/10/23 03:10:22;;;;;;;20.55;11.85;;;11.50;99.90;;;;;;5095368;28;20167;-75
2022/10/23 03:12:48;;;;;;;12.15;11.02;;;11.60;99.90;;;;;;5095838;28;20676;-75
2022/10/23 03:15:15;;;;;;;12.52;10.68;;;11.60;99.90;;;;;;5084363;28;20286;-75
2022/10/23 03:17:42;;;;;;;12.43;11.20;;;11.60;99.90;;;;;;5091548;28;20176;-76
2022/10/23 03:20:08;;;;;;;12.15;11.10;;;11.60;99.90;;;;;;5094463;28;20178;-75
2022/10/23 03:22:34;;;;;;;13.43;11.73;;;11.60;99.90;;;;;;5085572;28;20220;-76
2022/10/23 03:25:00;;;;;;;16.80;11.57;;;11.60;99.90;;;;;;5082317;28;20281;-76
2022/10/23 03:27:25;;;;;;;12.40;11.23;;;11.60;99.90;;;;;;5089817;28;20199;-77
2022/10/23 03:29:51;;;;;;;11.80;10.75;;;11.70;99.90;;;;;;5083128;28;20205;-77
2022/10/23 03:32:17;;;;;;;14.38;11.93;;;11.70;99.90;;;;;;5085200;28;20225;-76
2022/10/23 03:34:42;;;;;;;13.75;12.45;;;11.70;99.90;;;;;;5089714;28;20285;-76
2022/10/23 03:37:08;;;;;;;14.45;13.07;;;11.70;99.90;;;;;;5090747;28;20610;-76
2022/10/23 03:39:37;;;;;;;13.18;11.90;;;11.70;99.90;;;;;;5097569;28;20174;-76
2022/10/23 03:42:03;;;;;;;13.23;12.00;;;11.70;99.90;;;;;;5096080;28;20611;-76
2022/10/23 03:44:30;;;;;;;12.68;11.45;;;11.70;99.90;;;;;;5085246;28;20289;-77
2022/10/23 03:46:56;;;;;;;12.18;11.05;;;11.70;99.90;;;;;;5099368;28;20541;-76
2022/10/23 03:49:21;;;;;;;12.75;11.45;;;11.70;99.90;;;;;;5111277;28;20182;-76
2022/10/23 03:51:51;;;;;;;13.05;11.77;;;11.70;99.90;;;;;;5102959;28;20233;-76
2022/10/23 03:54:23;;;;;;;12.75;11.55;;;11.70;99.90;;;;;;5106288;28;20185;-77
2022/10/23 03:56:49;;;;;;;13.52;11.95;;;11.70;99.90;;;;;;5096942;28;20722;-75
2022/10/23 03:59:15;;;;;;;13.60;12.20;;;11.70;99.90;;;;;;5103798;28;20257;-76
2022/10/23 04:01:40;;;;;;;12.30;11.20;;;11.70;99.90;;;;;;5109950;28;20272;-76
2022/10/23 04:04:06;;;;;;;11.30;10.20;;;11.60;99.90;;;;;;5107566;28;20698;-76
2022/10/23 04:06:32;;;;;;;11.73;10.52;;;11.50;99.90;;;;;;5104015;28;20182;-75
2022/10/23 04:08:58;;;;;;;11.43;10.32;;;11.50;99.90;;;;;;5104813;28;20558;-75
2022/10/23 04:11:23;;;;;;;12.80;10.80;;;11.40;99.90;;;;;;5108583;28;20209;-75
2022/10/23 04:13:49;;;;;;;11.02;9.77;;;11.30;99.90;;;;;;5091823;28;20185;-75
2022/10/23 04:16:15;;;;;;;11.20;10.10;;;11.30;99.90;;;;;;5103566;28;20347;-75
2022/10/23 04:18:41;;;;;;;18.55;11.07;;;11.30;99.90;;;;;;5110492;28;20610;-76
2022/10/23 04:21:07;;;;;;;13.45;10.93;;;11.20;99.90;;;;;;5085707;28;20175;-76
2022/10/23 04:23:33;;;;;;;15.90;9.27;;;11.20;99.90;;;;;;5082351;28;20221;-75
2022/10/23 04:25:58;;;;;;;12.05;10.45;;;11.20;99.90;;;;;;5088684;28;20203;-75
2022/10/23 04:28:25;;;;;;;10.65;9.57;;;11.20;99.90;;;;;;5084006;28;20198;-75
2022/10/23 04:30:51;;;;;;;18.00;10.63;;;11.10;99.90;;;;;;5085755;28;20195;-76
2022/10/23 04:33:16;;;;;;;12.63;9.88;;;11.10;99.90;;;;;;5089234;28;20663;-76
2022/10/23 04:35:42;;;;;;;12.45;9.52;;;11.10;99.90;;;;;;5092824;28;20250;-76
2022/10/23 04:38:08;;;;;;;18.95;10.68;;;11.10;99.90;;;;;;5091843;28;20167;-76
2022/10/23 04:40:34;;;;;;;10.10;9.10;;;11.10;99.90;;;;;;5108498;28;20571;-77
2022/10/23 04:42:59;;;;;;;12.63;10.52;;;11.00;99.90;;;;;;5102308;28;20185;-75
2022/10/23 04:45:25;;;;;;;14.40;11.27;;;11.00;99.90;;;;;;5108634;28;20263;-76
2022/10/23 04:47:52;;;;;;;11.02;9.82;;;11.00;99.90;;;;;;5108728;28;20177;-75
2022/10/23 04:50:19;;;;;;;12.70;9.90;;;11.00;99.90;;;;;;5097570;28;20267;-76
2022/10/23 04:52:45;;;;;;;15.65;9.75;;;11.20;99.90;;;;;;5110098;28;20181;-76
2022/10/23 04:55:11;;;;;;;14.95;10.07;;;11.20;99.90;;;;;;5103669;28;20210;-76
2022/10/23 04:57:36;;;;;;;11.30;10.10;;;11.20;99.90;;;;;;5110216;28;20234;-76
2022/10/23 05:00:04;;;;;;;10.88;9.27;;;11.10;99.90;;;;;;5105991;28;20198;-76
2022/10/23 05:02:30;;;;;;;10.27;9.27;;;11.10;99.90;;;;;;5107249;28;20182;-75
2022/10/23 05:04:55;;;;;;;11.00;9.68;;;11.10;99.90;;;;;;5108044;28;20577;-77
2022/10/23 05:07:21;;;;;;;16.15;9.82;;;11.20;99.90;;;;;;5101258;28;20182;-76
2022/10/23 05:09:46;;;;;;;11.80;10.55;;;11.00;99.90;;;;;;5106171;28;20279;-76
2022/10/23 05:12:12;;;;;;;11.50;10.27;;;11.10;99.90;;;;;;5101844;28;20210;-76
2022/10/23 05:14:38;;;;;;;11.63;10.32;;;11.00;99.90;;;;;;5110297;28;20249;-76
2022/10/23 05:17:28;;;;;;;11.85;10.20;;;11.00;99.90;;;;;;5083703;28;20642;-75
2022/10/23 05:19:55;;;;;;;11.68;10.35;;;10.90;99.90;;;;;;5082125;28;20572;-75
2022/10/23 05:22:25;;;;;;;12.15;10.38;;;10.90;99.90;;;;;;5082070;28;20175;-75
2022/10/23 05:24:52;;;;;;;10.63;9.63;;;10.90;99.90;;;;;;5076823;28;20238;-76
2022/10/23 05:27:17;;;;;;;17.50;11.10;;;10.90;99.90;;;;;;5083463;28;20225;-75
2022/10/23 05:29:43;;;;;;;17.10;10.63;;;11.00;99.90;;;;;;5082438;28;20191;-75
2022/10/23 05:32:13;;;;;;;15.80;12.35;;;10.90;99.90;;;;;;5091096;28;20573;-75
2022/10/23 05:34:39;;;;;;;12.02;10.93;;;11.00;99.90;;;;;;5091584;28;20205;-75
2022/10/23 05:37:08;;;;;;;16.73;11.68;;;11.00;99.90;;;;;;5082195;28;20554;-75
2022/10/23 05:39:34;;;;;;;12.00;10.80;;;11.10;99.90;;;;;;5091681;28;20202;-76
2022/10/23 05:42:00;;;;;;;13.68;11.15;;;11.10;99.90;;;;;;5089309;28;20186;-75
2022/10/23 05:44:25;;;;;;;17.23;11.98;;;11.10;99.90;;;;;;5094979;28;20207;-75
2022/10/23 05:46:51;;;;;;;13.52;10.90;;;11.20;99.90;;;;;;5091415;28;20190;-74
2022/10/23 05:49:17;;;;;;;15.75;11.27;;;11.20;99.90;;;;;;5092441;28;20229;-75
2022/10/23 05:51:42;;;;;;;14.98;12.65;;;11.20;99.90;;;;;;5095694;28;20202;-76
2022/10/23 05:54:08;;;;;;;12.77;11.45;;;11.20;99.90;;;;;;5101958;28;20186;-75
2022/10/23 05:56:36;;;;;;;14.88;10.38;;;11.30;99.90;;;;;;5100548;28;20171;-75
2022/10/23 05:59:02;;;;;;;12.88;10.82;;;11.20;99.90;;;;;;5098834;28;20169;-76
2022/10/23 06:01:29;;;;;;;15.15;11.38;;;11.20;99.90;;;;;;5104441;28;20221;-75
2022/10/23 06:03:55;;;;;;;13.38;10.43;;;11.30;99.90;;;;;;5098237;28;20200;-78
2022/10/23 06:10:03;;;;;;;;;;;;;;;;;;;;;
2022/10/23 06:12:51;;;;;;;10.90;9.80;;;11.30;99.90;;;;;;5117098;28;20237;-83
2022/10/23 06:15:20;;;;;;;11.48;9.68;;;11.30;99.90;;;;;;5113972;28;20229;-83
2022/10/23 06:17:59;;;;;;;11.48;9.75;;;11.30;99.90;;;;;;5125645;28;20177;-82
2022/10/23 06:20:25;;;;;;;10.52;9.52;;;11.30;99.90;;;;;;5102757;28;20221;-85
2022/10/23 06:22:53;;;;;;;10.20;9.20;;;11.40;99.90;;;;;;5113705;28;20232;-83
2022/10/23 06:25:19;;;;;;;13.30;9.70;;;11.50;99.90;;;;;;5118398;28;20201;-82
2022/10/23 06:28:23;;;;;;;11.80;10.60;;;11.50;99.90;;;;;;5126080;28;20190;-82
2022/10/23 06:30:52;;;;;;;10.48;9.48;;;11.50;99.90;;;;;;5100258;28;20209;-82
2022/10/23 06:33:18;;;;;;;12.82;9.38;;;11.50;99.90;;;;;;5098501;28;20175;-76
2022/10/23 06:35:43;;;;;;;11.93;9.73;;;11.40;99.90;;;;;;5098612;28;20286;-75
2022/10/23 06:38:09;;;;;;;10.80;9.63;;;11.40;99.90;;;;;;5105664;28;20170;-75
2022/10/23 06:40:35;;;;;;;10.93;9.80;;;11.50;99.90;;;;;;5106546;28;20179;-75
2022/10/23 06:43:02;;;;;;;11.32;10.30;;;11.60;99.90;;;;;;5109009;28;20538;-76
2022/10/23 06:45:32;;;;;;;11.20;10.13;;;11.70;99.90;;;;;;5094600;28;20697;-76
2022/10/23 06:47:58;;;;;;;9.95;9.05;;;11.70;99.90;;;;;;5103836;28;20170;-76
2022/10/23 06:50:24;;;;;;;10.13;9.05;;;11.70;99.90;;;;;;5100325;28;20219;-76
2022/10/23 06:52:50;;;;;;;9.45;8.60;;;11.70;99.90;;;;;;5107952;28;20251;-76
2022/10/23 06:55:17;;;;;;;10.35;9.35;;;11.70;99.90;;;;;;5097825;28;20248;-76
2022/10/23 06:57:42;;;;;;;10.38;9.48;;;11.80;99.90;;;;;;5104422;28;20649;-76
2022/10/23 07:00:09;;;;;;;9.73;8.82;;;11.90;99.90;;;;;;5104335;28;20246;-76
2022/10/23 07:02:34;;;;;;;10.35;9.35;;;12.00;99.90;;;;;;5096962;28;20191;-76
2022/10/23 07:05:00;;;;;;;10.52;9.45;;;12.00;99.90;;;;;;5110149;28;20653;-76
2022/10/23 07:07:28;;;;;;;10.27;9.38;;;12.00;99.90;;;;;;5103094;28;20186;-77
2022/10/23 07:09:53;;;;;;;9.30;8.40;;;12.00;99.90;;;;;;5104779;28;20179;-76
2022/10/23 07:12:19;;;;;;;9.10;8.25;;;12.00;99.90;;;;;;5096736;28;20206;-76
2022/10/23 07:14:45;;;;;;;8.70;7.97;;;12.10;99.90;;;;;;5094000;28;20201;-75
2022/10/23 07:17:10;;;;;;;9.27;8.38;;;12.20;99.90;;;;;;5096315;28;20202;-77
2022/10/23 07:19:36;;;;;;;8.85;8.15;;;12.30;99.90;;;;;;5082660;28;20265;-76
2022/10/23 07:22:01;;;;;;;8.45;7.75;;;12.30;99.90;;;;;;5087010;28;20844;-76
2022/10/23 07:24:37;;;;;;;8.57;7.88;;;12.30;99.90;;;;;;5081581;28;20210;-80
2022/10/23 07:27:03;;;;;;;8.63;7.82;;;12.30;99.90;;;;;;5097906;28;20219;-76
2022/10/23 07:29:29;;;;;;;9.82;7.90;;;12.30;99.90;;;;;;5082956;28;20240;-76
2022/10/23 07:31:56;;;;;;;9.30;8.38;;;12.40;99.90;;;;;;5090359;28;20214;-75
2022/10/23 07:34:22;;;;;;;8.05;7.25;;;12.40;99.90;;;;;;5090403;28;20205;-77
2022/10/23 07:36:55;;;;;;;8.82;7.97;;;12.50;99.90;;;;;;5087112;28;20205;-77
2022/10/23 07:39:21;;;;;;;8.35;7.55;;;12.60;99.90;;;;;;5088524;28;20657;-76
2022/10/23 07:41:47;;;;;;;9.07;8.27;;;12.80;99.90;;;;;;5088812;28;20182;-76
2022/10/23 07:44:13;;;;;;;9.07;8.18;;;12.80;99.90;;;;;;5086921;28;20191;-76
2022/10/23 07:46:38;;;;;;;9.15;8.35;;;12.80;99.90;;;;;;5082539;28;20259;-77
2022/10/23 07:49:04;;;;;;;9.13;8.32;;;12.70;99.90;;;;;;5104485;28;20218;-77
2022/10/23 07:51:32;;;;;;;8.95;7.78;;;12.50;99.90;;;;;;5092226;28;20212;-76
2022/10/23 07:53:58;;;;;;;8.50;7.70;;;12.60;99.90;;;;;;5090339;28;20194;-79
2022/10/23 07:56:28;;;;;;;8.27;7.57;;;12.50;99.90;;;;;;5098360;28;20198;-75
2022/10/23 07:58:54;;;;;;;8.65;7.85;;;12.60;99.90;;;;;;5097031;28;20890;-78
2022/10/23 08:01:47;;;;;;;8.90;7.88;;;12.60;99.90;;;;;;5101162;28;20183;-80
2022/10/23 08:04:13;;;;;;;7.50;6.90;;;12.60;99.90;;;;;;5110687;27;20841;-77
2022/10/23 08:06:38;;;;;;;8.85;8.05;;;12.60;99.90;;;;;;5093407;28;20185;-76
2022/10/23 08:09:04;;;;;;;9.25;7.63;;;12.60;99.90;;;;;;5096360;28;21574;-76
2022/10/23 08:11:34;;;;;;;8.10;7.40;;;12.60;99.90;;;;;;5091304;28;20294;-76
2022/10/23 08:14:10;;;;;;;7.78;7.13;;;12.50;99.90;;;;;;5082287;28;20198;-78
2022/10/23 08:16:37;;;;;;;10.23;7.60;;;12.50;99.90;;;;;;5081467;28;20178;-77
2022/10/23 08:19:04;;;;;;;8.85;8.10;;;12.60;99.90;;;;;;5093327;28;20183;-77
2022/10/23 08:21:30;;;;;;;9.05;8.25;;;12.60;99.90;;;;;;5084702;28;20183;-77
2022/10/23 08:23:57;;;;;;;7.80;7.10;;;12.70;99.90;;;;;;5086540;28;20261;-77
2022/10/23 08:26:24;;;;;;;8.63;7.68;;;12.80;99.90;;;;;;5099344;28;20201;-77
2022/10/23 08:28:50;;;;;;;8.40;7.60;;;12.80;99.90;;;;;;5091647;28;20170;-77
2022/10/23 08:31:19;;;;;;;7.63;6.93;;;12.80;99.90;;;;;;5102213;27;20229;-77
2022/10/23 08:33:45;;;;;;;7.22;6.60;;;12.90;99.90;;;;;;5099212;28;20194;-76
2022/10/23 08:36:29;;;;;;;8.27;7.30;;;12.90;99.90;;;;;;5093475;28;20291;-76
2022/10/23 08:38:56;;;;;;;8.10;7.40;;;13.00;99.90;;;;;;5101744;28;20195;-77
2022/10/23 08:41:35;;;;;;;8.27;7.47;;;13.20;99.90;;;;;;5100437;28;20607;-77
2022/10/23 08:44:29;;;;;;;7.93;7.22;;;13.30;99.90;;;;;;5104883;28;20674;-77
2022/10/23 08:47:00;;;;;;;8.68;7.97;;;13.40;99.90;;;;;;5088946;28;20598;-77
2022/10/23 08:49:58;;;;;;;8.48;7.72;;;13.50;99.90;;;;;;5102713;28;20178;-77
2022/10/23 08:53:01;;;;;;;9.43;8.52;;;13.50;99.90;;;;;;5103553;28;20324;-77
2022/10/23 08:55:32;;;;;;;9.63;8.73;;;13.50;99.90;;;;;;5094935;28;20280;-77
2022/10/23 08:58:00;;;;;;;9.40;8.50;;;13.40;99.90;;;;;;5096712;28;20173;-77
2022/10/23 09:00:27;;;;;;;10.18;9.18;;;13.50;99.90;;;;;;5107299;28;20185;-77
2022/10/23 09:02:54;;;;;;;9.05;8.15;;;13.60;99.90;;;;;;5102942;28;20574;-76
2022/10/23 09:05:50;;;;;;;8.98;8.18;;;13.70;99.90;;;;;;5105947;28;20206;-77
2022/10/23 09:08:33;;;;;;;11.32;9.82;;;13.90;99.90;;;;;;5102052;28;20166;-77
2022/10/23 09:11:05;;;;;;;9.52;8.63;;;14.00;99.90;;;;;;5102877;28;20189;-77
2022/10/23 09:13:52;;;;;;;11.13;9.18;;;13.90;99.90;;;;;;5097728;28;20238;-76
2022/10/23 09:16:36;;;;;;;10.77;8.98;;;14.00;99.90;;;;;;5109869;28;20205;-77
2022/10/23 09:19:14;;;;;;;10.00;9.02;;;14.10;99.90;;;;;;5095638;28;20197;-76
2022/10/23 09:21:41;;;;;;;10.77;9.73;;;14.20;99.90;;;;;;5107789;28;20209;-77
2022/10/23 09:24:16;;;;;;;9.85;8.88;;;14.20;99.90;;;;;;5105837;28;20170;-78
2022/10/23 09:26:49;;;;;;;9.23;8.32;;;14.10;99.90;;;;;;5113189;28;20669;-74
2022/10/23 09:29:34;;;;;;;9.18;8.27;;;14.10;99.90;;;;;;5100226;28;20664;-73
2022/10/23 09:32:03;;;;;;;8.60;7.75;;;14.10;99.90;;;;;;5092931;28;20199;-73
2022/10/23 09:34:30;;;;;;;11.13;9.55;;;14.20;99.90;;;;;;5091835;28;20277;-74
2022/10/23 09:36:59;;;;;;;10.27;9.13;;;14.10;99.90;;;;;;5098101;28;20239;-73
2022/10/23 09:39:35;;;;;;;9.43;8.30;;;14.10;99.90;;;;;;5090850;28;20178;-73
2022/10/23 09:42:20;;;;;;;9.65;8.73;;;14.20;99.90;;;;;;5098550;28;20259;-72
2022/10/23 09:44:49;;;;;;;9.60;8.70;;;14.20;99.90;;;;;;5099807;28;20221;-71
2022/10/23 09:47:19;;;;;;;11.65;8.55;;;14.30;99.90;;;;;;5093667;28;20281;-73
2022/10/23 09:49:56;;;;;;;8.60;7.80;;;14.30;99.90;;;;;;5092861;28;20186;-73
2022/10/23 09:52:36;;;;;;;8.73;7.82;;;14.30;99.90;;;;;;5093440;28;20240;-73
2022/10/23 09:55:18;;;;;;;9.55;8.10;;;14.30;99.90;;;;;;5092530;28;20197;-73
2022/10/23 09:57:44;;;;;;;9.48;8.55;;;14.40;99.90;;;;;;5082515;28;20193;-73
2022/10/23 10:00:13;;;;;;;8.88;7.47;;;14.50;99.90;;;;;;5090012;28;20280;-73
2022/10/23 10:02:41;;;;;;;9.73;8.27;;;14.60;99.90;;;;;;5090270;28;20198;-73
2022/10/23 10:05:24;;;;;;;10.85;9.07;;;14.80;99.90;;;;;;5088844;28;21744;-73
2022/10/23 10:08:16;;;;;;;12.30;9.70;;;14.90;99.90;;;;;;5088977;28;20245;-73
2022/10/23 10:10:49;;;;;;;11.23;9.75;;;14.90;99.90;;;;;;5080530;28;20248;-73
2022/10/23 10:13:32;;;;;;;11.80;10.60;;;15.00;99.90;;;;;;5081380;28;20175;-73
2022/10/23 10:16:21;;;;;;;11.48;9.65;;;15.10;99.90;;;;;;5084321;28;20209;-73
2022/10/23 10:18:56;;;;;;;10.23;8.85;;;15.30;99.90;;;;;;5081481;28;20346;-73
2022/10/23 10:21:30;;;;;;;10.82;9.73;;;15.60;99.90;;;;;;5078701;28;20213;-73
2022/10/23 10:24:04;;;;;;;10.25;8.95;;;15.80;99.90;;;;;;5083516;28;20653;-73
2022/10/23 10:26:38;;;;;;;10.15;9.15;;;16.20;99.90;;;;;;5079044;28;20214;-74
2022/10/23 10:29:38;;;;;;;10.25;9.15;;;16.70;99.90;;;;;;5091634;28;20686;-74
2022/10/23 10:32:13;;;;;;;9.80;8.70;;;17.00;99.90;;;;;;5084426;28;20277;-77
2022/10/23 10:35:06;;;;;;;9.35;8.45;;;17.40;99.90;;;;;;5083474;28;20235;-74
2022/10/23 10:38:09;;;;;;;10.10;9.00;;;17.70;99.90;;;;;;5086270;28;20171;-73
2022/10/23 10:40:40;;;;;;;10.52;9.30;;;17.90;99.90;;;;;;5081694;28;20187;-73
2022/10/23 10:43:50;;;;;;;10.27;9.18;;;17.70;99.90;;;;;;5086493;28;20210;-74
2022/10/23 10:46:37;;;;;;;9.68;8.60;;;17.40;99.90;;;;;;5083689;28;20225;-74
2022/10/23 10:49:05;;;;;;;10.18;9.07;;;17.60;99.90;;;;;;5083201;28;20260;-74
2022/10/23 10:52:01;;;;;;;10.90;8.85;;;17.70;99.90;;;;;;5079646;28;20214;-73
2022/10/23 10:54:35;;;;;;;12.50;8.82;;;17.90;99.90;;;;;;5075352;28;20449;-73
2022/10/23 10:57:08;;;;;;;9.73;8.73;;;17.90;99.90;;;;;;5076968;28;20178;-73
2022/10/23 10:59:41;;;;;;;11.52;9.43;;;17.80;99.90;;;;;;5078265;28;20222;-73
2022/10/23 11:02:27;;;;;;;9.68;8.68;;;17.90;99.90;;;;;;5073284;28;20191;-73
2022/10/23 11:05:12;;;;;;;9.52;8.63;;;18.50;99.90;;;;;;5076254;28;20209;-73
2022/10/23 11:07:56;;;;;;;9.75;8.75;;;19.00;99.90;;;;;;5079338;28;20282;-73
2022/10/23 11:10:22;;;;;;;9.57;8.57;;;19.20;99.90;;;;;;5079050;28;20652;-74
2022/10/23 11:12:49;;;;;;;8.48;7.72;;;19.00;99.90;;;;;;5079276;28;20248;-74
2022/10/23 11:15:40;;;;;;;9.85;8.48;;;18.80;99.90;;;;;;5079968;28;20272;-73
2022/10/23 11:18:14;;;;;;;9.23;8.32;;;18.60;99.90;;;;;;5077275;28;20685;-73
2022/10/23 11:21:16;;;;;;;8.90;7.97;;;18.00;99.90;;;;;;5078078;28;20172;-74
2022/10/23 11:23:44;;;;;;;8.15;7.30;;;18.00;99.90;;;;;;5078496;28;20529;-73
2022/10/23 11:26:25;;;;;;;8.90;8.00;;;18.00;99.90;;;;;;5078158;28;20286;-73
2022/10/23 11:28:57;;;;;;;10.30;8.10;;;17.60;99.90;;;;;;5076485;28;20178;-74
2022/10/23 11:31:50;;;;;;;11.63;7.50;;;17.70;99.90;;;;;;5091137;28;20210;-74
2022/10/23 11:34:24;;;;;;;9.00;8.07;;;17.80;99.90;;;;;;5078180;28;20186;-73
2022/10/23 11:36:53;;;;;;;8.85;7.80;;;17.90;99.90;;;;;;5080718;28;20175;-73
2022/10/23 11:39:26;;;;;;;7.82;7.10;;;18.10;99.90;;;;;;5086952;28;20183;-74
2022/10/23 11:41:53;;;;;;;7.65;6.95;;;18.50;99.90;;;;;;5092547;28;20206;-74
2022/10/23 11:44:38;;;;;;;8.73;7.13;;;18.90;99.90;;;;;;5103426;28;20189;-75
2022/10/23 11:47:24;;;;;;;8.05;7.30;;;19.40;99.90;;;;;;5074944;28;20179;-74
2022/10/23 11:49:50;;;;;;;7.68;6.53;;;21.00;99.90;;;;;;5087279;28;20724;-75
2022/10/23 11:52:23;;;;;;;8.82;7.20;;;23.40;99.90;;;;;;5082679;28;20213;-75
2022/10/23 11:55:14;;;;;;;8.02;6.97;;;25.40;99.90;;;;;;5105094;28;20186;-76
2022/10/23 11:57:40;;;;;;;7.13;6.43;;;26.60;99.90;;;;;;5082554;28;20174;-73
2022/10/23 12:00:20;;;;;;;7.32;6.63;;;28.00;95.90;;;;;;5084757;28;20225;-71
2022/10/23 12:02:51;;;;;;;7.55;6.32;;;28.50;91.50;;;;;;5075861;28;20204;-72
2022/10/23 12:05:33;;;;;;;7.32;6.57;;;28.30;90.60;;;;;;5079362;28;20194;-75
2022/10/23 12:08:01;;;;;;;7.20;6.60;;;27.80;90.80;;;;;;5093949;27;20177;-73
2022/10/23 12:10:44;;;;;;;7.20;6.55;;;27.60;89.60;;;;;;5079698;28;20594;-73
2022/10/23 12:13:33;;;;;;;6.68;6.07;;;27.20;90.20;;;;;;5076964;28;20186;-74
2022/10/23 12:15:59;;;;;;;7.45;6.72;;;26.90;90.70;;;;;;5073331;28;20240;-75
2022/10/23 12:18:26;;;;;;;7.47;6.78;;;26.90;91.10;;;;;;5079112;28;20202;-72
2022/10/23 12:21:00;;;;;;;6.90;6.30;;;26.90;90.50;;;;;;5079312;28;21689;-73
2022/10/23 12:23:31;;;;;;;6.72;6.13;;;27.60;90.00;;;;;;5086153;28;20615;-75
2022/10/23 12:26:15;;;;;;;6.93;6.25;;;28.70;86.40;;;;;;5081013;28;20191;-73
2022/10/23 12:29:01;;;;;;;6.22;5.72;;;29.60;81.60;;;;;;5089479;28;20178;-73
2022/10/23 12:31:50;;;;;;;7.28;6.55;;;30.00;79.50;;;;;;5079351;28;20673;-74
2022/10/23 12:34:50;;;;;;;7.32;6.57;;;28.90;80.70;;;;;;5085106;28;20189;-73
2022/10/23 12:37:57;;;;;;;7.05;6.35;;;27.40;85.00;;;;;;5080401;28;20187;-73
2022/10/23 12:40:28;;;;;;;6.45;5.85;;;26.70;88.50;;;;;;5078166;28;20182;-72
2022/10/23 12:42:56;;;;;;;7.03;5.90;;;26.80;88.80;;;;;;5080029;28;20663;-73
2022/10/23 12:45:30;;;;;;;5.93;5.43;;;27.30;88.30;;;;;;5081278;28;20257;-73
2022/10/23 12:47:56;;;;;;;8.50;6.05;;;27.70;86.90;;;;;;5076802;28;20182;-75
2022/10/23 12:50:29;;;;;;;8.85;5.85;;;27.60;86.30;;;;;;5082388;28;20189;-73
2022/10/23 12:53:00;;;;;;;6.22;5.63;;;26.90;88.30;;;;;;5081010;28;20622;-72
2022/10/23 12:55:30;;;;;;;6.95;6.30;;;25.90;90.30;;;;;;5078307;28;20260;-72
2022/10/23 12:57:56;;;;;;;6.40;5.80;;;25.20;91.50;;;;;;5087938;28;20269;-73
2022/10/23 13:00:23;;;;;;;7.10;6.07;;;24.70;92.70;;;;;;5083581;28;20254;-73
2022/10/23 13:03:03;;;;;;;7.30;6.60;;;24.00;94.20;;;;;;5078919;28;20178;-72
2022/10/23 13:05:30;;;;;;;6.70;6.10;;;23.90;95.20;;;;;;5078127;28;20278;-72
2022/10/23 13:07:58;;;;;;;6.45;5.80;;;23.90;95.40;;;;;;5080204;28;20791;-74